sensor_id;sensor_type;location;lat;lon;timestamp;P1;durP1;ratioP1;P2;durP2;ratioP2
12878;SDS011;20617;49.476;10.986;2022-08-19T00:01:32;16.75;;;13.98;;
12878;SDS011;20617;49.476;10.986;2022-08-19T00:03:38;13.88;;;12.65;;
12878;SDS011;20617;49.476;10.986;2022-08-19T00:05:43;12.20;;;11.00;;
12878;SDS011;20617;49.476;10.986;2022-08-19T00:09:56;15.02;;;13.13;;
12878;SDS011;20617;49.476;10.986;2022-08-19T00:12:01;14.40;;;13.13;;
12878;SDS011;20617;49.476;10.986;2022-08-19T00:14:07;14.73;;;13.43;;
12878;SDS011;20617;49.476;10.986;2022-08-19T00:16:13;16.55;;;14.85;;
12878;SDS011;20617;49.476;10.986;2022-08-19T00:18:25;16.15;;;14.75;;
12878;SDS011;20617;49.476;10.986;2022-08-19T00:20:31;15.40;;;13.93;;
12878;SDS011;20617;49.476;10.986;2022-08-19T00:22:36;13.45;;;12.27;;
12878;SDS011;20617;49.476;10.986;2022-08-19T00:24:42;16.65;;;15.05;;
12878;SDS011;20617;49.476;10.986;2022-08-19T00:26:54;15.88;;;14.43;;
12878;SDS011;20617;49.476;10.986;2022-08-19T00:29:20;15.25;;;13.73;;
12878;SDS011;20617;49.476;10.986;2022-08-19T00:31:26;15.35;;;13.60;;
12878;SDS011;20617;49.476;10.986;2022-08-19T00:33:32;13.27;;;12.07;;
12878;SDS011;20617;49.476;10.986;2022-08-19T00:35:38;12.75;;;11.55;;
12878;SDS011;20617;49.476;10.986;2022-08-19T00:37:43;13.35;;;12.18;;
12878;SDS011;20617;49.476;10.986;2022-08-19T00:39:48;12.95;;;11.85;;
12878;SDS011;20617;49.476;10.986;2022-08-19T00:41:55;14.13;;;12.65;;
12878;SDS011;20617;49.476;10.986;2022-08-19T00:44:01;12.98;;;11.88;;
12878;SDS011;20617;49.476;10.986;2022-08-19T00:46:09;13.07;;;11.77;;
12878;SDS011;20617;49.476;10.986;2022-08-19T00:48:14;13.43;;;12.07;;
12878;SDS011;20617;49.476;10.986;2022-08-19T00:50:19;12.82;;;11.63;;
12878;SDS011;20617;49.476;10.986;2022-08-19T00:52:26;14.63;;;12.45;;
12878;SDS011;20617;49.476;10.986;2022-08-19T00:54:36;14.73;;;13.43;;
12878;SDS011;20617;49.476;10.986;2022-08-19T00:56:43;12.25;;;11.02;;
12878;SDS011;20617;49.476;10.986;2022-08-19T00:58:51;17.25;;;15.70;;
12878;SDS011;20617;49.476;10.986;2022-08-19T01:00:58;15.20;;;13.80;;
12878;SDS011;20617;49.476;10.986;2022-08-19T01:05:11;12.93;;;11.68;;
12878;SDS011;20617;49.476;10.986;2022-08-19T01:07:20;12.00;;;10.93;;
12878;SDS011;20617;49.476;10.986;2022-08-19T01:11:29;15.20;;;13.75;;
12878;SDS011;20617;49.476;10.986;2022-08-19T01:13:37;12.15;;;10.90;;
12878;SDS011;20617;49.476;10.986;2022-08-19T01:15:55;12.73;;;10.80;;
12878;SDS011;20617;49.476;10.986;2022-08-19T01:18:04;14.85;;;13.45;;
12878;SDS011;20617;49.476;10.986;2022-08-19T01:20:13;16.13;;;14.60;;
12878;SDS011;20617;49.476;10.986;2022-08-19T01:22:27;15.60;;;13.50;;
12878;SDS011;20617;49.476;10.986;2022-08-19T01:24:34;13.38;;;12.07;;
12878;SDS011;20617;49.476;10.986;2022-08-19T01:26:50;12.88;;;11.68;;
12878;SDS011;20617;49.476;10.986;2022-08-19T01:28:58;15.48;;;14.00;;
12878;SDS011;20617;49.476;10.986;2022-08-19T01:31:06;13.52;;;12.27;;
12878;SDS011;20617;49.476;10.986;2022-08-19T01:33:28;14.18;;;12.82;;
12878;SDS011;20617;49.476;10.986;2022-08-19T01:35:33;13.02;;;11.88;;
12878;SDS011;20617;49.476;10.986;2022-08-19T01:37:47;12.05;;;11.05;;
12878;SDS011;20617;49.476;10.986;2022-08-19T01:39:54;13.15;;;11.88;;
12878;SDS011;20617;49.476;10.986;2022-08-19T01:41:59;13.57;;;12.27;;
12878;SDS011;20617;49.476;10.986;2022-08-19T01:44:05;12.82;;;11.73;;
12878;SDS011;20617;49.476;10.986;2022-08-19T01:46:19;18.45;;;16.65;;
12878;SDS011;20617;49.476;10.986;2022-08-19T01:48:25;18.63;;;16.92;;
12878;SDS011;20617;49.476;10.986;2022-08-19T01:50:32;18.15;;;16.38;;
12878;SDS011;20617;49.476;10.986;2022-08-19T01:52:38;18.50;;;16.60;;
12878;SDS011;20617;49.476;10.986;2022-08-19T01:54:47;17.17;;;15.40;;
12878;SDS011;20617;49.476;10.986;2022-08-19T01:56:51;18.10;;;16.33;;
12878;SDS011;20617;49.476;10.986;2022-08-19T01:59:00;22.98;;;20.67;;
12878;SDS011;20617;49.476;10.986;2022-08-19T02:01:07;21.52;;;19.52;;
12878;SDS011;20617;49.476;10.986;2022-08-19T02:03:13;22.65;;;20.33;;
12878;SDS011;20617;49.476;10.986;2022-08-19T02:05:18;21.73;;;18.45;;
12878;SDS011;20617;49.476;10.986;2022-08-19T02:07:23;20.00;;;18.20;;
12878;SDS011;20617;49.476;10.986;2022-08-19T02:09:30;20.75;;;18.67;;
12878;SDS011;20617;49.476;10.986;2022-08-19T02:11:38;21.90;;;19.80;;
12878;SDS011;20617;49.476;10.986;2022-08-19T02:13:43;19.63;;;17.75;;
12878;SDS011;20617;49.476;10.986;2022-08-19T02:15:47;21.27;;;19.30;;
12878;SDS011;20617;49.476;10.986;2022-08-19T02:17:52;21.38;;;19.25;;
12878;SDS011;20617;49.476;10.986;2022-08-19T02:19:57;20.85;;;19.05;;
12878;SDS011;20617;49.476;10.986;2022-08-19T02:22:03;18.52;;;16.65;;
12878;SDS011;20617;49.476;10.986;2022-08-19T02:24:08;20.05;;;18.13;;
12878;SDS011;20617;49.476;10.986;2022-08-19T02:26:14;20.50;;;18.63;;
12878;SDS011;20617;49.476;10.986;2022-08-19T02:28:22;20.25;;;18.42;;
12878;SDS011;20617;49.476;10.986;2022-08-19T02:30:27;20.13;;;18.23;;
12878;SDS011;20617;49.476;10.986;2022-08-19T02:34:45;21.42;;;19.45;;
12878;SDS011;20617;49.476;10.986;2022-08-19T02:36:50;18.52;;;16.73;;
12878;SDS011;20617;49.476;10.986;2022-08-19T02:38:55;18.23;;;16.42;;
12878;SDS011;20617;49.476;10.986;2022-08-19T02:40:59;15.95;;;14.45;;
12878;SDS011;20617;49.476;10.986;2022-08-19T02:43:06;19.65;;;17.85;;
12878;SDS011;20617;49.476;10.986;2022-08-19T02:45:15;17.55;;;15.75;;
12878;SDS011;20617;49.476;10.986;2022-08-19T02:47:20;19.20;;;17.42;;
12878;SDS011;20617;49.476;10.986;2022-08-19T02:49:25;20.92;;;19.10;;
12878;SDS011;20617;49.476;10.986;2022-08-19T02:51:36;20.30;;;18.40;;
12878;SDS011;20617;49.476;10.986;2022-08-19T02:53:42;21.88;;;19.40;;
12878;SDS011;20617;49.476;10.986;2022-08-19T02:55:48;18.38;;;16.58;;
12878;SDS011;20617;49.476;10.986;2022-08-19T02:57:53;19.13;;;17.33;;
12878;SDS011;20617;49.476;10.986;2022-08-19T03:02:05;18.80;;;17.08;;
12878;SDS011;20617;49.476;10.986;2022-08-19T03:04:11;19.95;;;18.05;;
12878;SDS011;20617;49.476;10.986;2022-08-19T03:06:17;19.27;;;17.48;;
12878;SDS011;20617;49.476;10.986;2022-08-19T03:08:23;18.92;;;17.13;;
12878;SDS011;20617;49.476;10.986;2022-08-19T03:10:28;17.70;;;16.10;;
12878;SDS011;20617;49.476;10.986;2022-08-19T03:12:35;18.23;;;16.63;;
12878;SDS011;20617;49.476;10.986;2022-08-19T03:14:40;19.50;;;17.80;;
12878;SDS011;20617;49.476;10.986;2022-08-19T03:16:46;19.55;;;17.65;;
12878;SDS011;20617;49.476;10.986;2022-08-19T03:18:56;20.13;;;18.23;;
12878;SDS011;20617;49.476;10.986;2022-08-19T03:21:02;18.45;;;16.35;;
12878;SDS011;20617;49.476;10.986;2022-08-19T03:23:12;17.92;;;16.27;;
12878;SDS011;20617;49.476;10.986;2022-08-19T03:25:19;18.67;;;16.98;;
12878;SDS011;20617;49.476;10.986;2022-08-19T03:27:23;20.60;;;18.60;;
12878;SDS011;20617;49.476;10.986;2022-08-19T03:29:36;18.42;;;16.73;;
12878;SDS011;20617;49.476;10.986;2022-08-19T03:31:44;19.55;;;17.60;;
12878;SDS011;20617;49.476;10.986;2022-08-19T03:33:55;19.17;;;17.08;;
12878;SDS011;20617;49.476;10.986;2022-08-19T03:36:05;23.05;;;20.95;;
12878;SDS011;20617;49.476;10.986;2022-08-19T03:38:12;22.42;;;20.13;;
12878;SDS011;20617;49.476;10.986;2022-08-19T03:40:17;21.05;;;19.05;;
12878;SDS011;20617;49.476;10.986;2022-08-19T03:42:21;18.27;;;16.58;;
12878;SDS011;20617;49.476;10.986;2022-08-19T03:44:34;23.60;;;21.23;;
12878;SDS011;20617;49.476;10.986;2022-08-19T03:48:45;23.25;;;20.98;;
12878;SDS011;20617;49.476;10.986;2022-08-19T03:50:52;25.67;;;23.20;;
12878;SDS011;20617;49.476;10.986;2022-08-19T03:52:58;26.30;;;23.70;;
12878;SDS011;20617;49.476;10.986;2022-08-19T03:55:04;23.90;;;21.20;;
12878;SDS011;20617;49.476;10.986;2022-08-19T03:57:09;26.02;;;23.52;;
12878;SDS011;20617;49.476;10.986;2022-08-19T04:01:21;22.02;;;19.83;;
12878;SDS011;20617;49.476;10.986;2022-08-19T04:03:35;23.15;;;20.98;;
12878;SDS011;20617;49.476;10.986;2022-08-19T04:05:40;24.88;;;22.38;;
12878;SDS011;20617;49.476;10.986;2022-08-19T04:07:47;22.27;;;20.08;;
12878;SDS011;20617;49.476;10.986;2022-08-19T04:09:52;24.77;;;22.38;;
12878;SDS011;20617;49.476;10.986;2022-08-19T04:11:58;23.27;;;20.88;;
12878;SDS011;20617;49.476;10.986;2022-08-19T04:14:03;22.73;;;20.45;;
12878;SDS011;20617;49.476;10.986;2022-08-19T04:16:08;24.50;;;21.88;;
12878;SDS011;20617;49.476;10.986;2022-08-19T04:18:13;26.05;;;23.45;;
12878;SDS011;20617;49.476;10.986;2022-08-19T04:20:18;25.17;;;22.58;;
12878;SDS011;20617;49.476;10.986;2022-08-19T04:22:23;23.73;;;21.30;;
12878;SDS011;20617;49.476;10.986;2022-08-19T04:24:31;24.50;;;21.77;;
12878;SDS011;20617;49.476;10.986;2022-08-19T04:26:37;20.13;;;18.08;;
12878;SDS011;20617;49.476;10.986;2022-08-19T04:28:42;21.27;;;18.55;;
12878;SDS011;20617;49.476;10.986;2022-08-19T04:32:53;20.13;;;18.13;;
12878;SDS011;20617;49.476;10.986;2022-08-19T04:34:58;22.48;;;20.27;;
12878;SDS011;20617;49.476;10.986;2022-08-19T04:37:19;18.98;;;17.17;;
12878;SDS011;20617;49.476;10.986;2022-08-19T04:39:27;20.42;;;18.20;;
12878;SDS011;20617;49.476;10.986;2022-08-19T04:41:49;20.92;;;18.83;;
12878;SDS011;20617;49.476;10.986;2022-08-19T04:44:07;20.50;;;18.50;;
12878;SDS011;20617;49.476;10.986;2022-08-19T04:46:12;19.92;;;17.98;;
12878;SDS011;20617;49.476;10.986;2022-08-19T04:50:50;27.50;;;24.65;;
12878;SDS011;20617;49.476;10.986;2022-08-19T04:52:59;23.45;;;20.55;;
12878;SDS011;20617;49.476;10.986;2022-08-19T04:55:05;24.38;;;21.77;;
12878;SDS011;20617;49.476;10.986;2022-08-19T04:57:12;24.88;;;22.33;;
12878;SDS011;20617;49.476;10.986;2022-08-19T04:59:18;24.80;;;22.25;;
12878;SDS011;20617;49.476;10.986;2022-08-19T05:01:24;22.13;;;19.83;;
12878;SDS011;20617;49.476;10.986;2022-08-19T05:03:31;19.38;;;17.42;;
12878;SDS011;20617;49.476;10.986;2022-08-19T05:05:40;21.42;;;19.23;;
12878;SDS011;20617;49.476;10.986;2022-08-19T05:07:46;21.45;;;19.23;;
12878;SDS011;20617;49.476;10.986;2022-08-19T05:09:51;22.70;;;20.40;;
12878;SDS011;20617;49.476;10.986;2022-08-19T05:11:59;22.83;;;20.42;;
12878;SDS011;20617;49.476;10.986;2022-08-19T05:14:07;26.67;;;23.88;;
12878;SDS011;20617;49.476;10.986;2022-08-19T05:16:14;27.20;;;24.38;;
12878;SDS011;20617;49.476;10.986;2022-08-19T05:18:20;22.23;;;19.95;;
12878;SDS011;20617;49.476;10.986;2022-08-19T05:20:37;27.80;;;23.10;;
12878;SDS011;20617;49.476;10.986;2022-08-19T05:22:55;22.35;;;20.05;;
12878;SDS011;20617;49.476;10.986;2022-08-19T05:25:00;21.92;;;19.73;;
12878;SDS011;20617;49.476;10.986;2022-08-19T05:27:13;21.90;;;19.58;;
12878;SDS011;20617;49.476;10.986;2022-08-19T05:29:21;23.73;;;20.48;;
12878;SDS011;20617;49.476;10.986;2022-08-19T05:31:32;23.55;;;21.05;;
12878;SDS011;20617;49.476;10.986;2022-08-19T05:33:42;23.45;;;20.95;;
12878;SDS011;20617;49.476;10.986;2022-08-19T05:37:52;20.23;;;18.13;;
12878;SDS011;20617;49.476;10.986;2022-08-19T05:39:59;24.63;;;21.40;;
12878;SDS011;20617;49.476;10.986;2022-08-19T05:42:05;25.02;;;22.45;;
12878;SDS011;20617;49.476;10.986;2022-08-19T05:44:12;24.75;;;22.23;;
12878;SDS011;20617;49.476;10.986;2022-08-19T05:46:21;25.70;;;22.98;;
12878;SDS011;20617;49.476;10.986;2022-08-19T05:48:28;20.98;;;18.65;;
12878;SDS011;20617;49.476;10.986;2022-08-19T05:50:34;20.38;;;18.27;;
12878;SDS011;20617;49.476;10.986;2022-08-19T05:52:39;22.42;;;20.13;;
12878;SDS011;20617;49.476;10.986;2022-08-19T05:54:50;22.40;;;19.95;;
12878;SDS011;20617;49.476;10.986;2022-08-19T05:56:57;20.40;;;18.25;;
12878;SDS011;20617;49.476;10.986;2022-08-19T05:59:02;20.38;;;18.17;;
12878;SDS011;20617;49.476;10.986;2022-08-19T06:01:12;24.17;;;21.65;;
12878;SDS011;20617;49.476;10.986;2022-08-19T06:03:22;21.30;;;19.15;;
12878;SDS011;20617;49.476;10.986;2022-08-19T06:05:27;18.95;;;16.95;;
12878;SDS011;20617;49.476;10.986;2022-08-19T06:07:31;24.40;;;22.02;;
12878;SDS011;20617;49.476;10.986;2022-08-19T06:09:36;24.95;;;22.45;;
12878;SDS011;20617;49.476;10.986;2022-08-19T06:11:45;27.65;;;24.88;;
12878;SDS011;20617;49.476;10.986;2022-08-19T06:13:55;20.33;;;18.23;;
12878;SDS011;20617;49.476;10.986;2022-08-19T06:16:01;20.15;;;18.02;;
12878;SDS011;20617;49.476;10.986;2022-08-19T06:18:06;18.73;;;16.30;;
12878;SDS011;20617;49.476;10.986;2022-08-19T06:20:14;21.98;;;19.60;;
12878;SDS011;20617;49.476;10.986;2022-08-19T06:22:41;18.05;;;16.25;;
12878;SDS011;20617;49.476;10.986;2022-08-19T06:24:48;18.35;;;16.55;;
12878;SDS011;20617;49.476;10.986;2022-08-19T06:26:55;17.48;;;15.68;;
12878;SDS011;20617;49.476;10.986;2022-08-19T06:29:03;22.27;;;18.35;;
12878;SDS011;20617;49.476;10.986;2022-08-19T06:31:09;19.55;;;17.45;;
12878;SDS011;20617;49.476;10.986;2022-08-19T06:33:15;19.23;;;17.33;;
12878;SDS011;20617;49.476;10.986;2022-08-19T06:37:27;20.85;;;18.85;;
12878;SDS011;20617;49.476;10.986;2022-08-19T06:39:33;18.38;;;16.45;;
12878;SDS011;20617;49.476;10.986;2022-08-19T06:41:41;19.67;;;17.67;;
12878;SDS011;20617;49.476;10.986;2022-08-19T06:43:53;18.55;;;16.58;;
12878;SDS011;20617;49.476;10.986;2022-08-19T06:45:58;17.63;;;15.93;;
12878;SDS011;20617;49.476;10.986;2022-08-19T06:48:06;20.00;;;18.00;;
12878;SDS011;20617;49.476;10.986;2022-08-19T06:50:12;20.63;;;18.63;;
12878;SDS011;20617;49.476;10.986;2022-08-19T06:52:19;17.23;;;15.63;;
12878;SDS011;20617;49.476;10.986;2022-08-19T06:54:26;17.10;;;15.30;;
12878;SDS011;20617;49.476;10.986;2022-08-19T06:56:38;17.33;;;15.68;;
12878;SDS011;20617;49.476;10.986;2022-08-19T07:00:47;16.67;;;14.45;;
12878;SDS011;20617;49.476;10.986;2022-08-19T07:02:52;13.82;;;12.50;;
12878;SDS011;20617;49.476;10.986;2022-08-19T07:05:04;19.90;;;17.80;;
12878;SDS011;20617;49.476;10.986;2022-08-19T07:07:11;14.65;;;13.15;;
12878;SDS011;20617;49.476;10.986;2022-08-19T07:09:24;13.15;;;11.88;;
12878;SDS011;20617;49.476;10.986;2022-08-19T07:11:31;15.75;;;14.10;;
12878;SDS011;20617;49.476;10.986;2022-08-19T07:15:41;17.23;;;15.60;;
12878;SDS011;20617;49.476;10.986;2022-08-19T07:17:48;16.85;;;15.10;;
12878;SDS011;20617;49.476;10.986;2022-08-19T07:19:53;15.05;;;13.55;;
12878;SDS011;20617;49.476;10.986;2022-08-19T07:22:06;12.25;;;10.93;;
12878;SDS011;20617;49.476;10.986;2022-08-19T07:24:13;14.20;;;12.75;;
12878;SDS011;20617;49.476;10.986;2022-08-19T07:26:25;16.23;;;13.18;;
12878;SDS011;20617;49.476;10.986;2022-08-19T07:28:32;15.55;;;13.85;;
12878;SDS011;20617;49.476;10.986;2022-08-19T07:30:51;20.98;;;14.80;;
12878;SDS011;20617;49.476;10.986;2022-08-19T07:35:04;20.40;;;15.73;;
12878;SDS011;20617;49.476;10.986;2022-08-19T07:37:10;14.52;;;13.13;;
12878;SDS011;20617;49.476;10.986;2022-08-19T07:41:24;15.30;;;13.60;;
12878;SDS011;20617;49.476;10.986;2022-08-19T07:43:32;22.58;;;15.43;;
12878;SDS011;20617;49.476;10.986;2022-08-19T07:45:37;15.30;;;13.68;;
12878;SDS011;20617;49.476;10.986;2022-08-19T07:47:43;13.65;;;12.25;;
12878;SDS011;20617;49.476;10.986;2022-08-19T07:52:08;21.88;;;19.60;;
12878;SDS011;20617;49.476;10.986;2022-08-19T07:54:13;21.58;;;19.45;;
12878;SDS011;20617;49.476;10.986;2022-08-19T07:56:19;19.38;;;17.33;;
12878;SDS011;20617;49.476;10.986;2022-08-19T07:58:27;19.50;;;17.50;;
12878;SDS011;20617;49.476;10.986;2022-08-19T08:00:33;17.70;;;15.93;;
12878;SDS011;20617;49.476;10.986;2022-08-19T08:02:38;19.67;;;16.17;;
12878;SDS011;20617;49.476;10.986;2022-08-19T08:04:44;18.88;;;16.50;;
12878;SDS011;20617;49.476;10.986;2022-08-19T08:07:01;18.75;;;16.90;;
12878;SDS011;20617;49.476;10.986;2022-08-19T08:09:20;24.70;;;17.38;;
12878;SDS011;20617;49.476;10.986;2022-08-19T08:11:27;20.85;;;18.40;;
12878;SDS011;20617;49.476;10.986;2022-08-19T08:13:35;24.85;;;17.88;;
12878;SDS011;20617;49.476;10.986;2022-08-19T08:15:42;18.17;;;16.38;;
12878;SDS011;20617;49.476;10.986;2022-08-19T08:17:51;19.63;;;17.55;;
12878;SDS011;20617;49.476;10.986;2022-08-19T08:19:56;26.60;;;22.08;;
12878;SDS011;20617;49.476;10.986;2022-08-19T08:22:01;20.95;;;18.75;;
12878;SDS011;20617;49.476;10.986;2022-08-19T08:24:07;23.83;;;20.45;;
12878;SDS011;20617;49.476;10.986;2022-08-19T08:26:11;24.95;;;21.60;;
12878;SDS011;20617;49.476;10.986;2022-08-19T08:28:17;23.05;;;20.63;;
12878;SDS011;20617;49.476;10.986;2022-08-19T08:30:25;23.50;;;21.10;;
12878;SDS011;20617;49.476;10.986;2022-08-19T08:32:33;25.90;;;23.23;;
12878;SDS011;20617;49.476;10.986;2022-08-19T08:34:38;24.35;;;21.75;;
12878;SDS011;20617;49.476;10.986;2022-08-19T08:36:44;22.67;;;20.20;;
12878;SDS011;20617;49.476;10.986;2022-08-19T08:38:49;23.15;;;20.58;;
12878;SDS011;20617;49.476;10.986;2022-08-19T08:40:56;23.38;;;21.05;;
12878;SDS011;20617;49.476;10.986;2022-08-19T08:43:09;23.67;;;20.48;;
12878;SDS011;20617;49.476;10.986;2022-08-19T08:45:26;24.13;;;21.63;;
12878;SDS011;20617;49.476;10.986;2022-08-19T08:47:44;25.38;;;20.48;;
12878;SDS011;20617;49.476;10.986;2022-08-19T08:49:54;24.55;;;21.77;;
12878;SDS011;20617;49.476;10.986;2022-08-19T08:52:05;21.58;;;19.35;;
12878;SDS011;20617;49.476;10.986;2022-08-19T08:54:17;22.90;;;20.77;;
12878;SDS011;20617;49.476;10.986;2022-08-19T08:56:25;19.92;;;17.92;;
12878;SDS011;20617;49.476;10.986;2022-08-19T09:00:47;19.67;;;17.58;;
12878;SDS011;20617;49.476;10.986;2022-08-19T09:02:52;21.17;;;18.60;;
12878;SDS011;20617;49.476;10.986;2022-08-19T09:04:59;18.30;;;16.35;;
12878;SDS011;20617;49.476;10.986;2022-08-19T09:07:18;17.60;;;15.85;;
12878;SDS011;20617;49.476;10.986;2022-08-19T09:09:37;19.63;;;17.67;;
12878;SDS011;20617;49.476;10.986;2022-08-19T09:11:50;16.83;;;15.02;;
12878;SDS011;20617;49.476;10.986;2022-08-19T09:14:04;16.25;;;14.55;;
12878;SDS011;20617;49.476;10.986;2022-08-19T09:16:38;16.48;;;14.77;;
12878;SDS011;20617;49.476;10.986;2022-08-19T09:18:44;15.38;;;13.98;;
12878;SDS011;20617;49.476;10.986;2022-08-19T09:20:56;20.45;;;18.38;;
12878;SDS011;20617;49.476;10.986;2022-08-19T09:23:01;16.33;;;14.65;;
12878;SDS011;20617;49.476;10.986;2022-08-19T09:25:08;25.45;;;20.63;;
12878;SDS011;20617;49.476;10.986;2022-08-19T09:27:14;20.85;;;18.77;;
12878;SDS011;20617;49.476;10.986;2022-08-19T09:29:19;16.90;;;15.18;;
12878;SDS011;20617;49.476;10.986;2022-08-19T09:31:25;21.90;;;19.52;;
12878;SDS011;20617;49.476;10.986;2022-08-19T09:33:34;17.17;;;15.38;;
12878;SDS011;20617;49.476;10.986;2022-08-19T09:35:39;22.27;;;20.10;;
12878;SDS011;20617;49.476;10.986;2022-08-19T09:37:54;20.13;;;18.13;;
12878;SDS011;20617;49.476;10.986;2022-08-19T09:40:00;19.25;;;15.80;;
12878;SDS011;20617;49.476;10.986;2022-08-19T09:44:20;19.30;;;15.30;;
12878;SDS011;20617;49.476;10.986;2022-08-19T09:46:27;18.48;;;16.58;;
12878;SDS011;20617;49.476;10.986;2022-08-19T09:48:36;16.35;;;14.68;;
12878;SDS011;20617;49.476;10.986;2022-08-19T09:50:41;17.65;;;15.73;;
12878;SDS011;20617;49.476;10.986;2022-08-19T09:52:52;21.67;;;19.20;;
12878;SDS011;20617;49.476;10.986;2022-08-19T09:54:58;16.75;;;15.05;;
12878;SDS011;20617;49.476;10.986;2022-08-19T09:57:08;17.40;;;15.63;;
12878;SDS011;20617;49.476;10.986;2022-08-19T10:01:18;20.27;;;17.98;;
12878;SDS011;20617;49.476;10.986;2022-08-19T10:03:26;19.73;;;17.63;;
12878;SDS011;20617;49.476;10.986;2022-08-19T10:05:34;16.73;;;15.10;;
12878;SDS011;20617;49.476;10.986;2022-08-19T10:07:56;15.40;;;13.50;;
12878;SDS011;20617;49.476;10.986;2022-08-19T10:10:05;19.25;;;17.27;;
12878;SDS011;20617;49.476;10.986;2022-08-19T10:12:11;16.17;;;14.40;;
12878;SDS011;20617;49.476;10.986;2022-08-19T10:14:20;18.20;;;15.38;;
12878;SDS011;20617;49.476;10.986;2022-08-19T10:16:26;15.57;;;13.98;;
12878;SDS011;20617;49.476;10.986;2022-08-19T10:18:31;18.55;;;16.67;;
12878;SDS011;20617;49.476;10.986;2022-08-19T10:20:40;14.88;;;13.27;;
12878;SDS011;20617;49.476;10.986;2022-08-19T10:22:45;14.73;;;13.30;;
12878;SDS011;20617;49.476;10.986;2022-08-19T10:24:52;18.52;;;16.52;;
12878;SDS011;20617;49.476;10.986;2022-08-19T10:26:57;17.27;;;15.55;;
12878;SDS011;20617;49.476;10.986;2022-08-19T10:29:04;17.35;;;15.77;;
12878;SDS011;20617;49.476;10.986;2022-08-19T10:31:11;16.60;;;14.52;;
12878;SDS011;20617;49.476;10.986;2022-08-19T10:33:20;15.75;;;13.88;;
12878;SDS011;20617;49.476;10.986;2022-08-19T10:35:48;17.98;;;16.27;;
12878;SDS011;20617;49.476;10.986;2022-08-19T10:37:57;16.45;;;13.90;;
12878;SDS011;20617;49.476;10.986;2022-08-19T10:40:05;16.27;;;14.68;;
12878;SDS011;20617;49.476;10.986;2022-08-19T10:42:13;17.63;;;15.82;;
12878;SDS011;20617;49.476;10.986;2022-08-19T10:44:18;16.08;;;14.60;;
12878;SDS011;20617;49.476;10.986;2022-08-19T10:46:25;17.15;;;15.35;;
12878;SDS011;20617;49.476;10.986;2022-08-19T10:48:34;14.98;;;13.48;;
12878;SDS011;20617;49.476;10.986;2022-08-19T10:50:39;16.98;;;15.38;;
12878;SDS011;20617;49.476;10.986;2022-08-19T10:53:02;15.73;;;14.13;;
12878;SDS011;20617;49.476;10.986;2022-08-19T10:55:10;14.40;;;12.45;;
12878;SDS011;20617;49.476;10.986;2022-08-19T10:57:30;14.95;;;13.52;;
12878;SDS011;20617;49.476;10.986;2022-08-19T10:59:55;15.90;;;14.10;;
12878;SDS011;20617;49.476;10.986;2022-08-19T11:04:05;16.25;;;14.55;;
12878;SDS011;20617;49.476;10.986;2022-08-19T11:06:12;18.27;;;16.17;;
12878;SDS011;20617;49.476;10.986;2022-08-19T11:08:20;15.18;;;13.68;;
12878;SDS011;20617;49.476;10.986;2022-08-19T11:10:25;16.13;;;14.55;;
12878;SDS011;20617;49.476;10.986;2022-08-19T11:12:30;13.45;;;12.15;;
12878;SDS011;20617;49.476;10.986;2022-08-19T11:14:35;13.50;;;12.20;;
12878;SDS011;20617;49.476;10.986;2022-08-19T11:16:41;14.57;;;13.07;;
12878;SDS011;20617;49.476;10.986;2022-08-19T11:18:48;13.75;;;12.35;;
12878;SDS011;20617;49.476;10.986;2022-08-19T11:20:54;13.93;;;12.60;;
12878;SDS011;20617;49.476;10.986;2022-08-19T11:22:59;15.82;;;13.00;;
12878;SDS011;20617;49.476;10.986;2022-08-19T11:25:08;15.82;;;14.23;;
12878;SDS011;20617;49.476;10.986;2022-08-19T11:27:14;13.77;;;12.27;;
12878;SDS011;20617;49.476;10.986;2022-08-19T11:29:20;12.40;;;11.20;;
12878;SDS011;20617;49.476;10.986;2022-08-19T11:31:28;12.70;;;11.50;;
12878;SDS011;20617;49.476;10.986;2022-08-19T11:33:34;14.77;;;13.27;;
12878;SDS011;20617;49.476;10.986;2022-08-19T11:35:39;12.02;;;10.77;;
12878;SDS011;20617;49.476;10.986;2022-08-19T11:37:44;12.10;;;11.05;;
12878;SDS011;20617;49.476;10.986;2022-08-19T11:39:49;13.32;;;12.02;;
12878;SDS011;20617;49.476;10.986;2022-08-19T11:41:58;13.50;;;12.20;;
12878;SDS011;20617;49.476;10.986;2022-08-19T11:44:04;14.07;;;11.98;;
12878;SDS011;20617;49.476;10.986;2022-08-19T11:46:11;14.38;;;12.98;;
12878;SDS011;20617;49.476;10.986;2022-08-19T11:48:18;11.52;;;10.43;;
12878;SDS011;20617;49.476;10.986;2022-08-19T11:50:23;14.38;;;12.88;;
12878;SDS011;20617;49.476;10.986;2022-08-19T11:52:28;12.60;;;11.40;;
12878;SDS011;20617;49.476;10.986;2022-08-19T11:54:33;14.30;;;12.43;;
12878;SDS011;20617;49.476;10.986;2022-08-19T11:58:46;14.52;;;13.13;;
12878;SDS011;20617;49.476;10.986;2022-08-19T12:00:51;14.80;;;11.65;;
12878;SDS011;20617;49.476;10.986;2022-08-19T12:02:57;13.27;;;11.85;;
12878;SDS011;20617;49.476;10.986;2022-08-19T12:05:02;13.60;;;12.32;;
12878;SDS011;20617;49.476;10.986;2022-08-19T12:07:13;15.20;;;13.80;;
12878;SDS011;20617;49.476;10.986;2022-08-19T12:09:18;13.73;;;12.30;;
12878;SDS011;20617;49.476;10.986;2022-08-19T12:11:23;13.13;;;11.93;;
12878;SDS011;20617;49.476;10.986;2022-08-19T12:13:31;13.60;;;12.30;;
12878;SDS011;20617;49.476;10.986;2022-08-19T12:15:39;14.65;;;13.18;;
12878;SDS011;20617;49.476;10.986;2022-08-19T12:17:46;13.48;;;12.18;;
12878;SDS011;20617;49.476;10.986;2022-08-19T12:21:58;11.48;;;10.27;;
12878;SDS011;20617;49.476;10.986;2022-08-19T12:24:05;12.25;;;11.15;;
12878;SDS011;20617;49.476;10.986;2022-08-19T12:26:11;13.30;;;12.00;;
12878;SDS011;20617;49.476;10.986;2022-08-19T12:28:17;12.82;;;11.63;;
12878;SDS011;20617;49.476;10.986;2022-08-19T12:30:23;12.35;;;11.20;;
12878;SDS011;20617;49.476;10.986;2022-08-19T12:32:31;12.15;;;11.05;;
12878;SDS011;20617;49.476;10.986;2022-08-19T12:34:35;14.50;;;13.10;;
12878;SDS011;20617;49.476;10.986;2022-08-19T12:36:40;15.32;;;13.82;;
12878;SDS011;20617;49.476;10.986;2022-08-19T12:38:45;14.70;;;13.40;;
12878;SDS011;20617;49.476;10.986;2022-08-19T12:40:50;14.90;;;13.60;;
12878;SDS011;20617;49.476;10.986;2022-08-19T12:43:01;16.02;;;14.45;;
12878;SDS011;20617;49.476;10.986;2022-08-19T12:45:08;15.43;;;13.82;;
12878;SDS011;20617;49.476;10.986;2022-08-19T12:47:14;14.63;;;13.20;;
12878;SDS011;20617;49.476;10.986;2022-08-19T12:49:22;17.63;;;15.93;;
12878;SDS011;20617;49.476;10.986;2022-08-19T12:51:47;17.08;;;15.55;;
12878;SDS011;20617;49.476;10.986;2022-08-19T12:53:53;19.10;;;17.40;;
12878;SDS011;20617;49.476;10.986;2022-08-19T12:55:58;18.73;;;16.95;;
12878;SDS011;20617;49.476;10.986;2022-08-19T12:58:07;16.15;;;14.60;;
12878;SDS011;20617;49.476;10.986;2022-08-19T13:00:15;13.57;;;12.20;;
12878;SDS011;20617;49.476;10.986;2022-08-19T13:02:22;14.63;;;13.13;;
12878;SDS011;20617;49.476;10.986;2022-08-19T13:06:36;14.02;;;12.73;;